<?xml version="1.0" encoding="UTF-8" standalone="no" ?>
<gpx xmlns="http://www.topografix.com/GPX/1/1" xmlns:xsi="http://www.w3.org/2001/XMLSchema-instance" xsi:schemaLocation="http://www.topografix.com/GPX/1/1 http://www.topografix.com/GPX/1/1/gpx.xsd" version="1.1" creator="VisuGPX - https://www.visugpx.com">
  <metadata>
    <name>De Saint-Astier à Mussidan</name>
    <desc><![CDATA[LE CHEMIN VERS COMPOSTELLE, LA VOIE DE VEZELAY d'EGUZON A ST JEAN-PIED-DE-PORT]]></desc>
  </metadata>
  <trk>
    <name><![CDATA[9553387-Saint-Astier - Mussidan]]></name>
    <trkseg>
      <trkpt lat="45.14591" lon="0.52953">
        <ele>78</ele>
        <time>2019-02-08T18:07:58Z</time>
      </trkpt>
      <trkpt lat="45.14595" lon="0.52914">
        <ele>80</ele>
        <time>2019-02-08T18:08:58Z</time>
      </trkpt>
      <trkpt lat="45.14609" lon="0.52904">
        <ele>79</ele>
        <time>2019-02-08T18:09:58Z</time>
      </trkpt>
      <trkpt lat="45.1462" lon="0.52845">
        <ele>79</ele>
        <time>2019-02-08T18:10:58Z</time>
      </trkpt>
      <trkpt lat="45.14629" lon="0.52799">
        <ele>78</ele>
        <time>2019-02-08T18:11:58Z</time>
      </trkpt>
      <trkpt lat="45.14637" lon="0.5262">
        <ele>78</ele>
        <time>2019-02-08T18:12:58Z</time>
      </trkpt>
      <trkpt lat="45.1467" lon="0.52622">
        <ele>78</ele>
        <time>2019-02-08T18:13:58Z</time>
      </trkpt>
      <trkpt lat="45.14706" lon="0.52629">
        <ele>78</ele>
        <time>2019-02-08T18:14:58Z</time>
      </trkpt>
      <trkpt lat="45.14729" lon="0.52608">
        <ele>79</ele>
        <time>2019-02-08T18:15:58Z</time>
      </trkpt>
      <trkpt lat="45.14749" lon="0.52299">
        <ele>84</ele>
        <time>2019-02-08T18:16:58Z</time>
      </trkpt>
      <trkpt lat="45.14746" lon="0.52255">
        <ele>85</ele>
        <time>2019-02-08T18:17:58Z</time>
      </trkpt>
      <trkpt lat="45.1477" lon="0.52217">
        <ele>86</ele>
        <time>2019-02-08T18:18:58Z</time>
      </trkpt>
      <trkpt lat="45.14866" lon="0.52021">
        <ele>91</ele>
        <time>2019-02-08T18:19:58Z</time>
      </trkpt>
      <trkpt lat="45.14922" lon="0.51892">
        <ele>94</ele>
        <time>2019-02-08T18:20:58Z</time>
      </trkpt>
      <trkpt lat="45.14937" lon="0.51778">
        <ele>96</ele>
        <time>2019-02-08T18:21:58Z</time>
      </trkpt>
      <trkpt lat="45.14955" lon="0.5173">
        <ele>97</ele>
        <time>2019-02-08T18:22:58Z</time>
      </trkpt>
      <trkpt lat="45.1498" lon="0.51667">
        <ele>100</ele>
        <time>2019-02-08T18:23:58Z</time>
      </trkpt>
      <trkpt lat="45.14981" lon="0.51638">
        <ele>100</ele>
        <time>2019-02-08T18:24:58Z</time>
      </trkpt>
      <trkpt lat="45.15009" lon="0.51542">
        <ele>101</ele>
        <time>2019-02-08T18:25:58Z</time>
      </trkpt>
      <trkpt lat="45.15003" lon="0.51445">
        <ele>105</ele>
        <time>2019-02-08T18:26:58Z</time>
      </trkpt>
      <trkpt lat="45.15065" lon="0.5105">
        <ele>132</ele>
        <time>2019-02-08T18:27:58Z</time>
      </trkpt>
      <trkpt lat="45.15026" lon="0.50857">
        <ele>143</ele>
        <time>2019-02-08T18:28:58Z</time>
      </trkpt>
      <trkpt lat="45.15028" lon="0.50837">
        <ele>145</ele>
        <time>2019-02-08T18:29:58Z</time>
      </trkpt>
      <trkpt lat="45.15001" lon="0.50631">
        <ele>146</ele>
        <time>2019-02-08T18:30:58Z</time>
      </trkpt>
      <trkpt lat="45.14992" lon="0.50559">
        <ele>140</ele>
        <time>2019-02-08T18:31:58Z</time>
      </trkpt>
      <trkpt lat="45.14963" lon="0.50536">
        <ele>135</ele>
        <time>2019-02-08T18:32:58Z</time>
      </trkpt>
      <trkpt lat="45.1506" lon="0.50326">
        <ele>109</ele>
        <time>2019-02-08T18:33:58Z</time>
      </trkpt>
      <trkpt lat="45.15075" lon="0.50263">
        <ele>102</ele>
        <time>2019-02-08T18:34:58Z</time>
      </trkpt>
      <trkpt lat="45.15048" lon="0.50178">
        <ele>100</ele>
        <time>2019-02-08T18:35:58Z</time>
      </trkpt>
      <trkpt lat="45.1506" lon="0.50115">
        <ele>101</ele>
        <time>2019-02-08T18:36:58Z</time>
      </trkpt>
      <trkpt lat="45.15076" lon="0.50043">
        <ele>104</ele>
        <time>2019-02-08T18:37:58Z</time>
      </trkpt>
      <trkpt lat="45.15031" lon="0.49808">
        <ele>116</ele>
        <time>2019-02-08T18:38:58Z</time>
      </trkpt>
      <trkpt lat="45.15033" lon="0.49742">
        <ele>122</ele>
        <time>2019-02-08T18:39:58Z</time>
      </trkpt>
      <trkpt lat="45.15058" lon="0.49648">
        <ele>134</ele>
        <time>2019-02-08T18:40:58Z</time>
      </trkpt>
      <trkpt lat="45.1501" lon="0.49677">
        <ele>124</ele>
        <time>2019-02-08T18:41:58Z</time>
      </trkpt>
      <trkpt lat="45.14946" lon="0.49657">
        <ele>123</ele>
        <time>2019-02-08T18:42:58Z</time>
      </trkpt>
      <trkpt lat="45.14903" lon="0.49695">
        <ele>123</ele>
        <time>2019-02-08T18:43:58Z</time>
      </trkpt>
      <trkpt lat="45.14839" lon="0.49712">
        <ele>130</ele>
        <time>2019-02-08T18:44:58Z</time>
      </trkpt>
      <trkpt lat="45.14822" lon="0.49683">
        <ele>132</ele>
        <time>2019-02-08T18:45:58Z</time>
      </trkpt>
      <trkpt lat="45.14803" lon="0.49651">
        <ele>134</ele>
        <time>2019-02-08T18:46:58Z</time>
      </trkpt>
      <trkpt lat="45.14741" lon="0.49717">
        <ele>130</ele>
        <time>2019-02-08T18:47:58Z</time>
      </trkpt>
      <trkpt lat="45.14706" lon="0.49636">
        <ele>134</ele>
        <time>2019-02-08T18:48:58Z</time>
      </trkpt>
      <trkpt lat="45.14673" lon="0.49582">
        <ele>136</ele>
        <time>2019-02-08T18:49:58Z</time>
      </trkpt>
      <trkpt lat="45.14641" lon="0.49604">
        <ele>131</ele>
        <time>2019-02-08T18:50:58Z</time>
      </trkpt>
      <trkpt lat="45.14608" lon="0.49639">
        <ele>127</ele>
        <time>2019-02-08T18:51:58Z</time>
      </trkpt>
      <trkpt lat="45.14573" lon="0.49652">
        <ele>127</ele>
        <time>2019-02-08T18:52:58Z</time>
      </trkpt>
      <trkpt lat="45.14572" lon="0.49727">
        <ele>125</ele>
        <time>2019-02-08T18:53:58Z</time>
      </trkpt>
      <trkpt lat="45.14571" lon="0.4978">
        <ele>123</ele>
        <time>2019-02-08T18:54:58Z</time>
      </trkpt>
      <trkpt lat="45.14568" lon="0.49796">
        <ele>123</ele>
        <time>2019-02-08T18:55:58Z</time>
      </trkpt>
      <trkpt lat="45.14541" lon="0.49821">
        <ele>124</ele>
        <time>2019-02-08T18:56:58Z</time>
      </trkpt>
      <trkpt lat="45.14508" lon="0.49757">
        <ele>129</ele>
        <time>2019-02-08T18:57:58Z</time>
      </trkpt>
      <trkpt lat="45.14492" lon="0.49737">
        <ele>131</ele>
        <time>2019-02-08T18:58:58Z</time>
      </trkpt>
      <trkpt lat="45.14471" lon="0.49683">
        <ele>135</ele>
        <time>2019-02-08T18:59:58Z</time>
      </trkpt>
      <trkpt lat="45.1444" lon="0.49601">
        <ele>143</ele>
        <time>2019-02-08T19:00:58Z</time>
      </trkpt>
      <trkpt lat="45.14426" lon="0.4952">
        <ele>152</ele>
        <time>2019-02-08T19:01:58Z</time>
      </trkpt>
      <trkpt lat="45.14381" lon="0.494">
        <ele>160</ele>
        <time>2019-02-08T19:02:58Z</time>
      </trkpt>
      <trkpt lat="45.14361" lon="0.49363">
        <ele>163</ele>
        <time>2019-02-08T19:03:58Z</time>
      </trkpt>
      <trkpt lat="45.14342" lon="0.49343">
        <ele>166</ele>
        <time>2019-02-08T19:04:58Z</time>
      </trkpt>
      <trkpt lat="45.1431" lon="0.49341">
        <ele>166</ele>
        <time>2019-02-08T19:05:58Z</time>
      </trkpt>
      <trkpt lat="45.14342" lon="0.49255">
        <ele>166</ele>
        <time>2019-02-08T19:06:58Z</time>
      </trkpt>
      <trkpt lat="45.14362" lon="0.49183">
        <ele>169</ele>
        <time>2019-02-08T19:07:58Z</time>
      </trkpt>
      <trkpt lat="45.14404" lon="0.49149">
        <ele>171</ele>
        <time>2019-02-08T19:08:58Z</time>
      </trkpt>
      <trkpt lat="45.14503" lon="0.49092">
        <ele>177</ele>
        <time>2019-02-08T19:09:58Z</time>
      </trkpt>
      <trkpt lat="45.14486" lon="0.49071">
        <ele>178</ele>
        <time>2019-02-08T19:10:58Z</time>
      </trkpt>
      <trkpt lat="45.14461" lon="0.49045">
        <ele>179</ele>
        <time>2019-02-08T19:11:58Z</time>
      </trkpt>
      <trkpt lat="45.14446" lon="0.49011">
        <ele>181</ele>
        <time>2019-02-08T19:12:58Z</time>
      </trkpt>
      <trkpt lat="45.14452" lon="0.4897">
        <ele>179</ele>
        <time>2019-02-08T19:13:58Z</time>
      </trkpt>
      <trkpt lat="45.14461" lon="0.48918">
        <ele>175</ele>
        <time>2019-02-08T19:14:58Z</time>
      </trkpt>
      <trkpt lat="45.14446" lon="0.48874">
        <ele>171</ele>
        <time>2019-02-08T19:15:58Z</time>
      </trkpt>
      <trkpt lat="45.14436" lon="0.48853">
        <ele>169</ele>
        <time>2019-02-08T19:16:58Z</time>
      </trkpt>
      <trkpt lat="45.14461" lon="0.4883">
        <ele>166</ele>
        <time>2019-02-08T19:17:58Z</time>
      </trkpt>
      <trkpt lat="45.14493" lon="0.48839">
        <ele>167</ele>
        <time>2019-02-08T19:18:58Z</time>
      </trkpt>
      <trkpt lat="45.14503" lon="0.48812">
        <ele>163</ele>
        <time>2019-02-08T19:19:58Z</time>
      </trkpt>
      <trkpt lat="45.14501" lon="0.48772">
        <ele>160</ele>
        <time>2019-02-08T19:20:58Z</time>
      </trkpt>
      <trkpt lat="45.1446" lon="0.48715">
        <ele>150</ele>
        <time>2019-02-08T19:21:58Z</time>
      </trkpt>
      <trkpt lat="45.14417" lon="0.48709">
        <ele>149</ele>
        <time>2019-02-08T19:22:58Z</time>
      </trkpt>
      <trkpt lat="45.14329" lon="0.48719">
        <ele>136</ele>
        <time>2019-02-08T19:23:58Z</time>
      </trkpt>
      <trkpt lat="45.14271" lon="0.48722">
        <ele>129</ele>
        <time>2019-02-08T19:24:58Z</time>
      </trkpt>
      <trkpt lat="45.14191" lon="0.48748">
        <ele>119</ele>
        <time>2019-02-08T19:25:58Z</time>
      </trkpt>
      <trkpt lat="45.14143" lon="0.4876">
        <ele>112</ele>
        <time>2019-02-08T19:26:58Z</time>
      </trkpt>
      <trkpt lat="45.14101" lon="0.48784">
        <ele>106</ele>
        <time>2019-02-08T19:27:58Z</time>
      </trkpt>
      <trkpt lat="45.1407" lon="0.48792">
        <ele>102</ele>
        <time>2019-02-08T19:28:58Z</time>
      </trkpt>
      <trkpt lat="45.14056" lon="0.48789">
        <ele>100</ele>
        <time>2019-02-08T19:29:58Z</time>
      </trkpt>
      <trkpt lat="45.14042" lon="0.48768">
        <ele>97</ele>
        <time>2019-02-08T19:30:58Z</time>
      </trkpt>
      <trkpt lat="45.14027" lon="0.48707">
        <ele>96</ele>
        <time>2019-02-08T19:31:58Z</time>
      </trkpt>
      <trkpt lat="45.1402" lon="0.48672">
        <ele>97</ele>
        <time>2019-02-08T19:32:58Z</time>
      </trkpt>
      <trkpt lat="45.14002" lon="0.4863">
        <ele>101</ele>
        <time>2019-02-08T19:33:58Z</time>
      </trkpt>
      <trkpt lat="45.13971" lon="0.48523">
        <ele>111</ele>
        <time>2019-02-08T19:34:58Z</time>
      </trkpt>
      <trkpt lat="45.13951" lon="0.48461">
        <ele>115</ele>
        <time>2019-02-08T19:35:58Z</time>
      </trkpt>
      <trkpt lat="45.13929" lon="0.48454">
        <ele>119</ele>
        <time>2019-02-08T19:36:58Z</time>
      </trkpt>
      <trkpt lat="45.13874" lon="0.48473">
        <ele>124</ele>
        <time>2019-02-08T19:37:58Z</time>
      </trkpt>
      <trkpt lat="45.13831" lon="0.48445">
        <ele>127</ele>
        <time>2019-02-08T19:38:58Z</time>
      </trkpt>
      <trkpt lat="45.13798" lon="0.4844">
        <ele>131</ele>
        <time>2019-02-08T19:39:58Z</time>
      </trkpt>
      <trkpt lat="45.13777" lon="0.48466">
        <ele>132</ele>
        <time>2019-02-08T19:40:58Z</time>
      </trkpt>
      <trkpt lat="45.13753" lon="0.48496">
        <ele>133</ele>
        <time>2019-02-08T19:41:58Z</time>
      </trkpt>
      <trkpt lat="45.13699" lon="0.48505">
        <ele>137</ele>
        <time>2019-02-08T19:42:58Z</time>
      </trkpt>
      <trkpt lat="45.13692" lon="0.4853">
        <ele>136</ele>
        <time>2019-02-08T19:43:58Z</time>
      </trkpt>
      <trkpt lat="45.1368" lon="0.48602">
        <ele>131</ele>
        <time>2019-02-08T19:44:58Z</time>
      </trkpt>
      <trkpt lat="45.13661" lon="0.48616">
        <ele>132</ele>
        <time>2019-02-08T19:45:58Z</time>
      </trkpt>
      <trkpt lat="45.13649" lon="0.48566">
        <ele>135</ele>
        <time>2019-02-08T19:46:58Z</time>
      </trkpt>
      <trkpt lat="45.13649" lon="0.48548">
        <ele>136</ele>
        <time>2019-02-08T19:47:58Z</time>
      </trkpt>
      <trkpt lat="45.13636" lon="0.48526">
        <ele>136</ele>
        <time>2019-02-08T19:48:58Z</time>
      </trkpt>
      <trkpt lat="45.13618" lon="0.48516">
        <ele>136</ele>
        <time>2019-02-08T19:49:58Z</time>
      </trkpt>
      <trkpt lat="45.13598" lon="0.48498">
        <ele>134</ele>
        <time>2019-02-08T19:50:58Z</time>
      </trkpt>
      <trkpt lat="45.13588" lon="0.48476">
        <ele>134</ele>
        <time>2019-02-08T19:51:58Z</time>
      </trkpt>
      <trkpt lat="45.13559" lon="0.48438">
        <ele>134</ele>
        <time>2019-02-08T19:52:58Z</time>
      </trkpt>
      <trkpt lat="45.13514" lon="0.48405">
        <ele>134</ele>
        <time>2019-02-08T19:53:58Z</time>
      </trkpt>
      <trkpt lat="45.13437" lon="0.48393">
        <ele>132</ele>
        <time>2019-02-08T19:54:58Z</time>
      </trkpt>
      <trkpt lat="45.13408" lon="0.48376">
        <ele>132</ele>
        <time>2019-02-08T19:55:58Z</time>
      </trkpt>
      <trkpt lat="45.13397" lon="0.48369">
        <ele>132</ele>
        <time>2019-02-08T19:56:58Z</time>
      </trkpt>
      <trkpt lat="45.13389" lon="0.48341">
        <ele>134</ele>
        <time>2019-02-08T19:57:58Z</time>
      </trkpt>
      <trkpt lat="45.13371" lon="0.4831">
        <ele>136</ele>
        <time>2019-02-08T19:58:58Z</time>
      </trkpt>
      <trkpt lat="45.13351" lon="0.48281">
        <ele>138</ele>
        <time>2019-02-08T19:59:58Z</time>
      </trkpt>
      <trkpt lat="45.133" lon="0.48144">
        <ele>142</ele>
        <time>2019-02-08T20:00:58Z</time>
      </trkpt>
      <trkpt lat="45.13324" lon="0.48096">
        <ele>140</ele>
        <time>2019-02-08T20:01:58Z</time>
      </trkpt>
      <trkpt lat="45.13315" lon="0.48065">
        <ele>137</ele>
        <time>2019-02-08T20:02:58Z</time>
      </trkpt>
      <trkpt lat="45.13269" lon="0.48024">
        <ele>127</ele>
        <time>2019-02-08T20:03:58Z</time>
      </trkpt>
      <trkpt lat="45.13237" lon="0.48021">
        <ele>122</ele>
        <time>2019-02-08T20:04:58Z</time>
      </trkpt>
      <trkpt lat="45.13206" lon="0.48042">
        <ele>122</ele>
        <time>2019-02-08T20:05:58Z</time>
      </trkpt>
      <trkpt lat="45.13113" lon="0.48112">
        <ele>115</ele>
        <time>2019-02-08T20:06:58Z</time>
      </trkpt>
      <trkpt lat="45.13099" lon="0.48129">
        <ele>113</ele>
        <time>2019-02-08T20:07:58Z</time>
      </trkpt>
      <trkpt lat="45.13082" lon="0.48137">
        <ele>110</ele>
        <time>2019-02-08T20:08:58Z</time>
      </trkpt>
      <trkpt lat="45.13083" lon="0.48092">
        <ele>106</ele>
        <time>2019-02-08T20:09:58Z</time>
      </trkpt>
      <trkpt lat="45.13091" lon="0.4804">
        <ele>103</ele>
        <time>2019-02-08T20:10:58Z</time>
      </trkpt>
      <trkpt lat="45.13073" lon="0.48058">
        <ele>103</ele>
        <time>2019-02-08T20:11:58Z</time>
      </trkpt>
      <trkpt lat="45.13033" lon="0.48053">
        <ele>102</ele>
        <time>2019-02-08T20:12:58Z</time>
      </trkpt>
      <trkpt lat="45.13005" lon="0.4806">
        <ele>101</ele>
        <time>2019-02-08T20:13:58Z</time>
      </trkpt>
      <trkpt lat="45.12961" lon="0.47984">
        <ele>110</ele>
        <time>2019-02-08T20:14:58Z</time>
      </trkpt>
      <trkpt lat="45.12933" lon="0.47988">
        <ele>114</ele>
        <time>2019-02-08T20:15:58Z</time>
      </trkpt>
      <trkpt lat="45.12925" lon="0.48024">
        <ele>113</ele>
        <time>2019-02-08T20:16:58Z</time>
      </trkpt>
      <trkpt lat="45.12868" lon="0.4795">
        <ele>116</ele>
        <time>2019-02-08T20:17:58Z</time>
      </trkpt>
      <trkpt lat="45.12819" lon="0.47881">
        <ele>116</ele>
        <time>2019-02-08T20:18:58Z</time>
      </trkpt>
      <trkpt lat="45.12794" lon="0.47858">
        <ele>115</ele>
        <time>2019-02-08T20:19:58Z</time>
      </trkpt>
      <trkpt lat="45.12767" lon="0.47852">
        <ele>113</ele>
        <time>2019-02-08T20:20:58Z</time>
      </trkpt>
      <trkpt lat="45.12747" lon="0.47831">
        <ele>112</ele>
        <time>2019-02-08T20:21:58Z</time>
      </trkpt>
      <trkpt lat="45.127" lon="0.47712">
        <ele>114</ele>
        <time>2019-02-08T20:22:58Z</time>
      </trkpt>
      <trkpt lat="45.12667" lon="0.47741">
        <ele>112</ele>
        <time>2019-02-08T20:23:58Z</time>
      </trkpt>
      <trkpt lat="45.12651" lon="0.47787">
        <ele>109</ele>
        <time>2019-02-08T20:24:58Z</time>
      </trkpt>
      <trkpt lat="45.12632" lon="0.47818">
        <ele>107</ele>
        <time>2019-02-08T20:25:58Z</time>
      </trkpt>
      <trkpt lat="45.12576" lon="0.4784">
        <ele>105</ele>
        <time>2019-02-08T20:26:58Z</time>
      </trkpt>
      <trkpt lat="45.12532" lon="0.47809">
        <ele>105</ele>
        <time>2019-02-08T20:27:58Z</time>
      </trkpt>
      <trkpt lat="45.12431" lon="0.47728">
        <ele>103</ele>
        <time>2019-02-08T20:28:58Z</time>
      </trkpt>
      <trkpt lat="45.1236" lon="0.47668">
        <ele>101</ele>
        <time>2019-02-08T20:29:58Z</time>
      </trkpt>
      <trkpt lat="45.12311" lon="0.47627">
        <ele>99</ele>
        <time>2019-02-08T20:30:58Z</time>
      </trkpt>
      <trkpt lat="45.12253" lon="0.47556">
        <ele>95</ele>
        <time>2019-02-08T20:31:58Z</time>
      </trkpt>
      <trkpt lat="45.12099" lon="0.47423">
        <ele>88</ele>
        <time>2019-02-08T20:32:58Z</time>
      </trkpt>
      <trkpt lat="45.12096" lon="0.47365">
        <ele>91</ele>
        <time>2019-02-08T20:33:58Z</time>
      </trkpt>
      <trkpt lat="45.12071" lon="0.47302">
        <ele>95</ele>
        <time>2019-02-08T20:34:58Z</time>
      </trkpt>
      <trkpt lat="45.12068" lon="0.47259">
        <ele>97</ele>
        <time>2019-02-08T20:35:58Z</time>
      </trkpt>
      <trkpt lat="45.11983" lon="0.47322">
        <ele>88</ele>
        <time>2019-02-08T20:36:58Z</time>
      </trkpt>
      <trkpt lat="45.11894" lon="0.47215">
        <ele>85</ele>
        <time>2019-02-08T20:37:58Z</time>
      </trkpt>
      <trkpt lat="45.11872" lon="0.47242">
        <ele>84</ele>
        <time>2019-02-08T20:38:58Z</time>
      </trkpt>
      <trkpt lat="45.11854" lon="0.47271">
        <ele>82</ele>
        <time>2019-02-08T20:39:58Z</time>
      </trkpt>
      <trkpt lat="45.11789" lon="0.47167">
        <ele>80</ele>
        <time>2019-02-08T20:40:58Z</time>
      </trkpt>
      <trkpt lat="45.11802" lon="0.47123">
        <ele>82</ele>
        <time>2019-02-08T20:41:58Z</time>
      </trkpt>
      <trkpt lat="45.11744" lon="0.47004">
        <ele>82</ele>
        <time>2019-02-08T20:42:58Z</time>
      </trkpt>
      <trkpt lat="45.11672" lon="0.46889">
        <ele>82</ele>
        <time>2019-02-08T20:43:58Z</time>
      </trkpt>
      <trkpt lat="45.11597" lon="0.46813">
        <ele>82</ele>
        <time>2019-02-08T20:44:58Z</time>
      </trkpt>
      <trkpt lat="45.1154" lon="0.46739">
        <ele>82</ele>
        <time>2019-02-08T20:45:58Z</time>
      </trkpt>
      <trkpt lat="45.11506" lon="0.46671">
        <ele>83</ele>
        <time>2019-02-08T20:46:58Z</time>
      </trkpt>
      <trkpt lat="45.11462" lon="0.46651">
        <ele>81</ele>
        <time>2019-02-08T20:47:58Z</time>
      </trkpt>
      <trkpt lat="45.11397" lon="0.46634">
        <ele>78</ele>
        <time>2019-02-08T20:48:58Z</time>
      </trkpt>
      <trkpt lat="45.11359" lon="0.46557">
        <ele>81</ele>
        <time>2019-02-08T20:49:58Z</time>
      </trkpt>
      <trkpt lat="45.11346" lon="0.46532">
        <ele>81</ele>
        <time>2019-02-08T20:50:58Z</time>
      </trkpt>
      <trkpt lat="45.11327" lon="0.46447">
        <ele>84</ele>
        <time>2019-02-08T20:51:58Z</time>
      </trkpt>
      <trkpt lat="45.11298" lon="0.46409">
        <ele>83</ele>
        <time>2019-02-08T20:52:58Z</time>
      </trkpt>
      <trkpt lat="45.11201" lon="0.4634">
        <ele>79</ele>
        <time>2019-02-08T20:53:58Z</time>
      </trkpt>
      <trkpt lat="45.11162" lon="0.46322">
        <ele>75</ele>
        <time>2019-02-08T20:54:58Z</time>
      </trkpt>
      <trkpt lat="45.11071" lon="0.46274">
        <ele>73</ele>
        <time>2019-02-08T20:55:58Z</time>
      </trkpt>
      <trkpt lat="45.11043" lon="0.46239">
        <ele>73</ele>
        <time>2019-02-08T20:56:58Z</time>
      </trkpt>
      <trkpt lat="45.11004" lon="0.46149">
        <ele>78</ele>
        <time>2019-02-08T20:57:58Z</time>
      </trkpt>
      <trkpt lat="45.10971" lon="0.46057">
        <ele>89</ele>
        <time>2019-02-08T20:58:58Z</time>
      </trkpt>
      <trkpt lat="45.10944" lon="0.46001">
        <ele>94</ele>
        <time>2019-02-08T20:59:58Z</time>
      </trkpt>
      <trkpt lat="45.10922" lon="0.45942">
        <ele>99</ele>
        <time>2019-02-08T21:00:58Z</time>
      </trkpt>
      <trkpt lat="45.10912" lon="0.45877">
        <ele>109</ele>
        <time>2019-02-08T21:01:58Z</time>
      </trkpt>
      <trkpt lat="45.1088" lon="0.45794">
        <ele>112</ele>
        <time>2019-02-08T21:02:58Z</time>
      </trkpt>
      <trkpt lat="45.10896" lon="0.45711">
        <ele>124</ele>
        <time>2019-02-08T21:03:58Z</time>
      </trkpt>
      <trkpt lat="45.10899" lon="0.45619">
        <ele>127</ele>
        <time>2019-02-08T21:04:58Z</time>
      </trkpt>
      <trkpt lat="45.10889" lon="0.45545">
        <ele>126</ele>
        <time>2019-02-08T21:05:58Z</time>
      </trkpt>
      <trkpt lat="45.1087" lon="0.45458">
        <ele>124</ele>
        <time>2019-02-08T21:06:58Z</time>
      </trkpt>
      <trkpt lat="45.10866" lon="0.45402">
        <ele>122</ele>
        <time>2019-02-08T21:07:58Z</time>
      </trkpt>
      <trkpt lat="45.10887" lon="0.45315">
        <ele>119</ele>
        <time>2019-02-08T21:08:58Z</time>
      </trkpt>
      <trkpt lat="45.10889" lon="0.45265">
        <ele>116</ele>
        <time>2019-02-08T21:09:58Z</time>
      </trkpt>
      <trkpt lat="45.10892" lon="0.45218">
        <ele>113</ele>
        <time>2019-02-08T21:10:58Z</time>
      </trkpt>
      <trkpt lat="45.10892" lon="0.45153">
        <ele>109</ele>
        <time>2019-02-08T21:11:58Z</time>
      </trkpt>
      <trkpt lat="45.10912" lon="0.45036">
        <ele>95</ele>
        <time>2019-02-08T21:12:58Z</time>
      </trkpt>
      <trkpt lat="45.10901" lon="0.44973">
        <ele>88</ele>
        <time>2019-02-08T21:13:58Z</time>
      </trkpt>
      <trkpt lat="45.10896" lon="0.44893">
        <ele>83</ele>
        <time>2019-02-08T21:14:58Z</time>
      </trkpt>
      <trkpt lat="45.1087" lon="0.44812">
        <ele>77</ele>
        <time>2019-02-08T21:15:58Z</time>
      </trkpt>
      <trkpt lat="45.10832" lon="0.44733">
        <ele>70</ele>
        <time>2019-02-08T21:16:58Z</time>
      </trkpt>
      <trkpt lat="45.10789" lon="0.44688">
        <ele>67</ele>
        <time>2019-02-08T21:17:58Z</time>
      </trkpt>
      <trkpt lat="45.10757" lon="0.44684">
        <ele>68</ele>
        <time>2019-02-08T21:18:58Z</time>
      </trkpt>
      <trkpt lat="45.10763" lon="0.44605">
        <ele>64</ele>
        <time>2019-02-08T21:19:58Z</time>
      </trkpt>
      <trkpt lat="45.10755" lon="0.44503">
        <ele>65</ele>
        <time>2019-02-08T21:20:58Z</time>
      </trkpt>
      <trkpt lat="45.1075" lon="0.44428">
        <ele>67</ele>
        <time>2019-02-08T21:21:58Z</time>
      </trkpt>
      <trkpt lat="45.10757" lon="0.44383">
        <ele>71</ele>
        <time>2019-02-08T21:22:58Z</time>
      </trkpt>
      <trkpt lat="45.10752" lon="0.44088">
        <ele>96</ele>
        <time>2019-02-08T21:23:58Z</time>
      </trkpt>
      <trkpt lat="45.10749" lon="0.44018">
        <ele>101</ele>
        <time>2019-02-08T21:24:58Z</time>
      </trkpt>
      <trkpt lat="45.10749" lon="0.43971">
        <ele>105</ele>
        <time>2019-02-08T21:25:58Z</time>
      </trkpt>
      <trkpt lat="45.1074" lon="0.4393">
        <ele>108</ele>
        <time>2019-02-08T21:26:58Z</time>
      </trkpt>
      <trkpt lat="45.10768" lon="0.43863">
        <ele>113</ele>
        <time>2019-02-08T21:27:58Z</time>
      </trkpt>
      <trkpt lat="45.10826" lon="0.43751">
        <ele>119</ele>
        <time>2019-02-08T21:28:58Z</time>
      </trkpt>
      <trkpt lat="45.10836" lon="0.43693">
        <ele>120</ele>
        <time>2019-02-08T21:29:58Z</time>
      </trkpt>
      <trkpt lat="45.10828" lon="0.43609">
        <ele>123</ele>
        <time>2019-02-08T21:30:58Z</time>
      </trkpt>
      <trkpt lat="45.10826" lon="0.43578">
        <ele>123</ele>
        <time>2019-02-08T21:31:58Z</time>
      </trkpt>
      <trkpt lat="45.10826" lon="0.43526">
        <ele>121</ele>
        <time>2019-02-08T21:32:58Z</time>
      </trkpt>
      <trkpt lat="45.10772" lon="0.43388">
        <ele>123</ele>
        <time>2019-02-08T21:33:58Z</time>
      </trkpt>
      <trkpt lat="45.10791" lon="0.42887">
        <ele>118</ele>
        <time>2019-02-08T21:34:58Z</time>
      </trkpt>
      <trkpt lat="45.10806" lon="0.42795">
        <ele>119</ele>
        <time>2019-02-08T21:35:58Z</time>
      </trkpt>
      <trkpt lat="45.10819" lon="0.42625">
        <ele>127</ele>
        <time>2019-02-08T21:36:58Z</time>
      </trkpt>
      <trkpt lat="45.1082" lon="0.42528">
        <ele>134</ele>
        <time>2019-02-08T21:37:58Z</time>
      </trkpt>
      <trkpt lat="45.10801" lon="0.42477">
        <ele>141</ele>
        <time>2019-02-08T21:38:58Z</time>
      </trkpt>
      <trkpt lat="45.1082" lon="0.42382">
        <ele>145</ele>
        <time>2019-02-08T21:39:58Z</time>
      </trkpt>
      <trkpt lat="45.10813" lon="0.42157">
        <ele>153</ele>
        <time>2019-02-08T21:40:58Z</time>
      </trkpt>
      <trkpt lat="45.10798" lon="0.41924">
        <ele>157</ele>
        <time>2019-02-08T21:41:58Z</time>
      </trkpt>
      <trkpt lat="45.10799" lon="0.41815">
        <ele>157</ele>
        <time>2019-02-08T21:42:58Z</time>
      </trkpt>
      <trkpt lat="45.10792" lon="0.41675">
        <ele>154</ele>
        <time>2019-02-08T21:43:58Z</time>
      </trkpt>
      <trkpt lat="45.10786" lon="0.41387">
        <ele>148</ele>
        <time>2019-02-08T21:44:58Z</time>
      </trkpt>
      <trkpt lat="45.10778" lon="0.41274">
        <ele>146</ele>
        <time>2019-02-08T21:45:58Z</time>
      </trkpt>
      <trkpt lat="45.10777" lon="0.41212">
        <ele>144</ele>
        <time>2019-02-08T21:46:58Z</time>
      </trkpt>
      <trkpt lat="45.1076" lon="0.41151">
        <ele>142</ele>
        <time>2019-02-08T21:47:58Z</time>
      </trkpt>
      <trkpt lat="45.10702" lon="0.41016">
        <ele>138</ele>
        <time>2019-02-08T21:48:58Z</time>
      </trkpt>
      <trkpt lat="45.10642" lon="0.40916">
        <ele>134</ele>
        <time>2019-02-08T21:49:58Z</time>
      </trkpt>
      <trkpt lat="45.106" lon="0.40843">
        <ele>129</ele>
        <time>2019-02-08T21:50:58Z</time>
      </trkpt>
      <trkpt lat="45.10566" lon="0.40861">
        <ele>128</ele>
        <time>2019-02-08T21:51:58Z</time>
      </trkpt>
      <trkpt lat="45.10497" lon="0.40873">
        <ele>126</ele>
        <time>2019-02-08T21:52:58Z</time>
      </trkpt>
      <trkpt lat="45.10422" lon="0.40913">
        <ele>125</ele>
        <time>2019-02-08T21:53:58Z</time>
      </trkpt>
      <trkpt lat="45.10369" lon="0.40963">
        <ele>123</ele>
        <time>2019-02-08T21:54:58Z</time>
      </trkpt>
      <trkpt lat="45.10277" lon="0.41071">
        <ele>115</ele>
        <time>2019-02-08T21:55:58Z</time>
      </trkpt>
      <trkpt lat="45.10187" lon="0.41105">
        <ele>114</ele>
        <time>2019-02-08T21:56:58Z</time>
      </trkpt>
      <trkpt lat="45.1011" lon="0.41122">
        <ele>115</ele>
        <time>2019-02-08T21:57:58Z</time>
      </trkpt>
      <trkpt lat="45.10031" lon="0.41149">
        <ele>113</ele>
        <time>2019-02-08T21:58:58Z</time>
      </trkpt>
      <trkpt lat="45.09951" lon="0.41163">
        <ele>110</ele>
        <time>2019-02-08T21:59:58Z</time>
      </trkpt>
      <trkpt lat="45.09894" lon="0.41163">
        <ele>109</ele>
        <time>2019-02-08T22:00:58Z</time>
      </trkpt>
      <trkpt lat="45.09801" lon="0.41165">
        <ele>111</ele>
        <time>2019-02-08T22:01:58Z</time>
      </trkpt>
      <trkpt lat="45.09757" lon="0.41183">
        <ele>113</ele>
        <time>2019-02-08T22:02:58Z</time>
      </trkpt>
      <trkpt lat="45.09661" lon="0.41265">
        <ele>116</ele>
        <time>2019-02-08T22:03:58Z</time>
      </trkpt>
      <trkpt lat="45.09537" lon="0.40999">
        <ele>123</ele>
        <time>2019-02-08T22:04:58Z</time>
      </trkpt>
      <trkpt lat="45.0948" lon="0.40907">
        <ele>124</ele>
        <time>2019-02-08T22:05:58Z</time>
      </trkpt>
      <trkpt lat="45.09422" lon="0.40835">
        <ele>129</ele>
        <time>2019-02-08T22:06:58Z</time>
      </trkpt>
      <trkpt lat="45.09371" lon="0.40775">
        <ele>131</ele>
        <time>2019-02-08T22:07:58Z</time>
      </trkpt>
      <trkpt lat="45.09353" lon="0.40737">
        <ele>134</ele>
        <time>2019-02-08T22:08:58Z</time>
      </trkpt>
      <trkpt lat="45.09341" lon="0.40691">
        <ele>137</ele>
        <time>2019-02-08T22:09:58Z</time>
      </trkpt>
      <trkpt lat="45.09326" lon="0.40684">
        <ele>138</ele>
        <time>2019-02-08T22:10:58Z</time>
      </trkpt>
      <trkpt lat="45.09302" lon="0.40684">
        <ele>138</ele>
        <time>2019-02-08T22:11:58Z</time>
      </trkpt>
      <trkpt lat="45.09268" lon="0.40667">
        <ele>140</ele>
        <time>2019-02-08T22:12:58Z</time>
      </trkpt>
      <trkpt lat="45.09246" lon="0.40681">
        <ele>139</ele>
        <time>2019-02-08T22:13:58Z</time>
      </trkpt>
      <trkpt lat="45.09201" lon="0.40696">
        <ele>139</ele>
        <time>2019-02-08T22:14:58Z</time>
      </trkpt>
      <trkpt lat="45.09147" lon="0.40709">
        <ele>138</ele>
        <time>2019-02-08T22:15:58Z</time>
      </trkpt>
      <trkpt lat="45.09136" lon="0.40711">
        <ele>138</ele>
        <time>2019-02-08T22:16:58Z</time>
      </trkpt>
      <trkpt lat="45.09085" lon="0.40687">
        <ele>136</ele>
        <time>2019-02-08T22:17:58Z</time>
      </trkpt>
      <trkpt lat="45.09005" lon="0.40668">
        <ele>129</ele>
        <time>2019-02-08T22:18:58Z</time>
      </trkpt>
      <trkpt lat="45.09005" lon="0.40582">
        <ele>129</ele>
        <time>2019-02-08T22:19:58Z</time>
      </trkpt>
      <trkpt lat="45.08995" lon="0.40538">
        <ele>129</ele>
        <time>2019-02-08T22:20:58Z</time>
      </trkpt>
      <trkpt lat="45.08964" lon="0.40503">
        <ele>130</ele>
        <time>2019-02-08T22:21:58Z</time>
      </trkpt>
      <trkpt lat="45.08931" lon="0.40455">
        <ele>132</ele>
        <time>2019-02-08T22:22:58Z</time>
      </trkpt>
      <trkpt lat="45.08892" lon="0.40348">
        <ele>135</ele>
        <time>2019-02-08T22:23:58Z</time>
      </trkpt>
      <trkpt lat="45.08854" lon="0.40221">
        <ele>138</ele>
        <time>2019-02-08T22:24:58Z</time>
      </trkpt>
      <trkpt lat="45.08801" lon="0.40263">
        <ele>135</ele>
        <time>2019-02-08T22:25:58Z</time>
      </trkpt>
      <trkpt lat="45.08756" lon="0.40269">
        <ele>133</ele>
        <time>2019-02-08T22:26:58Z</time>
      </trkpt>
      <trkpt lat="45.08725" lon="0.40269">
        <ele>132</ele>
        <time>2019-02-08T22:27:58Z</time>
      </trkpt>
      <trkpt lat="45.08712" lon="0.40244">
        <ele>132</ele>
        <time>2019-02-08T22:28:58Z</time>
      </trkpt>
      <trkpt lat="45.08725" lon="0.4016">
        <ele>130</ele>
        <time>2019-02-08T22:29:58Z</time>
      </trkpt>
      <trkpt lat="45.0872" lon="0.40133">
        <ele>129</ele>
        <time>2019-02-08T22:30:58Z</time>
      </trkpt>
      <trkpt lat="45.08697" lon="0.40095">
        <ele>126</ele>
        <time>2019-02-08T22:31:58Z</time>
      </trkpt>
      <trkpt lat="45.08653" lon="0.40084">
        <ele>123</ele>
        <time>2019-02-08T22:32:58Z</time>
      </trkpt>
      <trkpt lat="45.08552" lon="0.40101">
        <ele>120</ele>
        <time>2019-02-08T22:33:58Z</time>
      </trkpt>
      <trkpt lat="45.08457" lon="0.40106">
        <ele>122</ele>
        <time>2019-02-08T22:34:58Z</time>
      </trkpt>
      <trkpt lat="45.08407" lon="0.40113">
        <ele>123</ele>
        <time>2019-02-08T22:35:58Z</time>
      </trkpt>
      <trkpt lat="45.08372" lon="0.40118">
        <ele>124</ele>
        <time>2019-02-08T22:36:58Z</time>
      </trkpt>
      <trkpt lat="45.08364" lon="0.40049">
        <ele>123</ele>
        <time>2019-02-08T22:37:58Z</time>
      </trkpt>
      <trkpt lat="45.08316" lon="0.40034">
        <ele>123</ele>
        <time>2019-02-08T22:38:58Z</time>
      </trkpt>
      <trkpt lat="45.08279" lon="0.39992">
        <ele>120</ele>
        <time>2019-02-08T22:39:58Z</time>
      </trkpt>
      <trkpt lat="45.08236" lon="0.39989">
        <ele>120</ele>
        <time>2019-02-08T22:40:58Z</time>
      </trkpt>
      <trkpt lat="45.08208" lon="0.39977">
        <ele>120</ele>
        <time>2019-02-08T22:41:58Z</time>
      </trkpt>
      <trkpt lat="45.08192" lon="0.39933">
        <ele>120</ele>
        <time>2019-02-08T22:42:58Z</time>
      </trkpt>
      <trkpt lat="45.08155" lon="0.39908">
        <ele>121</ele>
        <time>2019-02-08T22:43:58Z</time>
      </trkpt>
      <trkpt lat="45.08097" lon="0.39916">
        <ele>124</ele>
        <time>2019-02-08T22:44:58Z</time>
      </trkpt>
      <trkpt lat="45.08069" lon="0.39922">
        <ele>124</ele>
        <time>2019-02-08T22:45:58Z</time>
      </trkpt>
      <trkpt lat="45.08022" lon="0.39835">
        <ele>123</ele>
        <time>2019-02-08T22:46:58Z</time>
      </trkpt>
      <trkpt lat="45.0798" lon="0.39747">
        <ele>123</ele>
        <time>2019-02-08T22:47:58Z</time>
      </trkpt>
      <trkpt lat="45.0793" lon="0.39667">
        <ele>124</ele>
        <time>2019-02-08T22:48:58Z</time>
      </trkpt>
      <trkpt lat="45.07892" lon="0.39637">
        <ele>122</ele>
        <time>2019-02-08T22:49:58Z</time>
      </trkpt>
      <trkpt lat="45.07869" lon="0.3965">
        <ele>122</ele>
        <time>2019-02-08T22:50:58Z</time>
      </trkpt>
      <trkpt lat="45.07847" lon="0.39678">
        <ele>121</ele>
        <time>2019-02-08T22:51:58Z</time>
      </trkpt>
      <trkpt lat="45.07815" lon="0.39678">
        <ele>120</ele>
        <time>2019-02-08T22:52:58Z</time>
      </trkpt>
      <trkpt lat="45.07777" lon="0.39634">
        <ele>121</ele>
        <time>2019-02-08T22:53:58Z</time>
      </trkpt>
      <trkpt lat="45.07724" lon="0.396">
        <ele>124</ele>
        <time>2019-02-08T22:54:58Z</time>
      </trkpt>
      <trkpt lat="45.07612" lon="0.3957">
        <ele>128</ele>
        <time>2019-02-08T22:55:58Z</time>
      </trkpt>
      <trkpt lat="45.07552" lon="0.39552">
        <ele>127</ele>
        <time>2019-02-08T22:56:58Z</time>
      </trkpt>
      <trkpt lat="45.07501" lon="0.39532">
        <ele>126</ele>
        <time>2019-02-08T22:57:58Z</time>
      </trkpt>
      <trkpt lat="45.07465" lon="0.39538">
        <ele>126</ele>
        <time>2019-02-08T22:58:58Z</time>
      </trkpt>
      <trkpt lat="45.07439" lon="0.3954">
        <ele>126</ele>
        <time>2019-02-08T22:59:58Z</time>
      </trkpt>
      <trkpt lat="45.07389" lon="0.39518">
        <ele>127</ele>
        <time>2019-02-08T23:00:58Z</time>
      </trkpt>
      <trkpt lat="45.07341" lon="0.39488">
        <ele>129</ele>
        <time>2019-02-08T23:01:58Z</time>
      </trkpt>
      <trkpt lat="45.0723" lon="0.39394">
        <ele>127</ele>
        <time>2019-02-08T23:02:58Z</time>
      </trkpt>
      <trkpt lat="45.07179" lon="0.39417">
        <ele>127</ele>
        <time>2019-02-08T23:03:58Z</time>
      </trkpt>
      <trkpt lat="45.07132" lon="0.394">
        <ele>126</ele>
        <time>2019-02-08T23:04:58Z</time>
      </trkpt>
      <trkpt lat="45.07092" lon="0.39389">
        <ele>126</ele>
        <time>2019-02-08T23:05:58Z</time>
      </trkpt>
      <trkpt lat="45.07002" lon="0.39236">
        <ele>128</ele>
        <time>2019-02-08T23:06:58Z</time>
      </trkpt>
      <trkpt lat="45.06962" lon="0.39201">
        <ele>125</ele>
        <time>2019-02-08T23:07:58Z</time>
      </trkpt>
      <trkpt lat="45.06925" lon="0.39162">
        <ele>123</ele>
        <time>2019-02-08T23:08:58Z</time>
      </trkpt>
      <trkpt lat="45.06908" lon="0.39092">
        <ele>125</ele>
        <time>2019-02-08T23:09:58Z</time>
      </trkpt>
      <trkpt lat="45.0688" lon="0.39001">
        <ele>126</ele>
        <time>2019-02-08T23:10:58Z</time>
      </trkpt>
      <trkpt lat="45.06845" lon="0.38943">
        <ele>123</ele>
        <time>2019-02-08T23:11:58Z</time>
      </trkpt>
      <trkpt lat="45.0666" lon="0.38948">
        <ele>107</ele>
        <time>2019-02-08T23:12:58Z</time>
      </trkpt>
      <trkpt lat="45.06542" lon="0.38949">
        <ele>98</ele>
        <time>2019-02-08T23:13:58Z</time>
      </trkpt>
      <trkpt lat="45.06483" lon="0.38965">
        <ele>93</ele>
        <time>2019-02-08T23:14:58Z</time>
      </trkpt>
      <trkpt lat="45.06467" lon="0.38958">
        <ele>92</ele>
        <time>2019-02-08T23:15:58Z</time>
      </trkpt>
      <trkpt lat="45.06452" lon="0.38936">
        <ele>92</ele>
        <time>2019-02-08T23:16:58Z</time>
      </trkpt>
      <trkpt lat="45.06423" lon="0.38811">
        <ele>91</ele>
        <time>2019-02-08T23:17:58Z</time>
      </trkpt>
      <trkpt lat="45.06387" lon="0.38688">
        <ele>86</ele>
        <time>2019-02-08T23:18:58Z</time>
      </trkpt>
      <trkpt lat="45.06341" lon="0.38725">
        <ele>84</ele>
        <time>2019-02-08T23:19:58Z</time>
      </trkpt>
      <trkpt lat="45.06311" lon="0.38758">
        <ele>81</ele>
        <time>2019-02-08T23:20:58Z</time>
      </trkpt>
      <trkpt lat="45.06298" lon="0.38793">
        <ele>79</ele>
        <time>2019-02-08T23:21:58Z</time>
      </trkpt>
      <trkpt lat="45.06153" lon="0.38972">
        <ele>58</ele>
        <time>2019-02-08T23:22:58Z</time>
      </trkpt>
      <trkpt lat="45.0615" lon="0.39056">
        <ele>57</ele>
        <time>2019-02-08T23:23:58Z</time>
      </trkpt>
      <trkpt lat="45.06112" lon="0.39036">
        <ele>57</ele>
        <time>2019-02-08T23:24:58Z</time>
      </trkpt>
      <trkpt lat="45.06094" lon="0.39043">
        <ele>57</ele>
        <time>2019-02-08T23:25:58Z</time>
      </trkpt>
      <trkpt lat="45.06029" lon="0.39121">
        <ele>58</ele>
        <time>2019-02-08T23:26:58Z</time>
      </trkpt>
      <trkpt lat="45.05868" lon="0.38854">
        <ele>54</ele>
        <time>2019-02-08T23:27:58Z</time>
      </trkpt>
      <trkpt lat="45.05845" lon="0.38816">
        <ele>54</ele>
        <time>2019-02-08T23:28:58Z</time>
      </trkpt>
      <trkpt lat="45.05838" lon="0.38764">
        <ele>53</ele>
        <time>2019-02-08T23:29:58Z</time>
      </trkpt>
      <trkpt lat="45.05844" lon="0.38666">
        <ele>52</ele>
        <time>2019-02-08T23:30:58Z</time>
      </trkpt>
      <trkpt lat="45.05857" lon="0.38485">
        <ele>52</ele>
        <time>2019-02-08T23:31:58Z</time>
      </trkpt>
      <trkpt lat="45.05847" lon="0.38433">
        <ele>52</ele>
        <time>2019-02-08T23:32:58Z</time>
      </trkpt>
      <trkpt lat="45.05831" lon="0.38361">
        <ele>52</ele>
        <time>2019-02-08T23:33:58Z</time>
      </trkpt>
      <trkpt lat="45.05806" lon="0.38253">
        <ele>51</ele>
        <time>2019-02-08T23:34:58Z</time>
      </trkpt>
      <trkpt lat="45.05792" lon="0.38156">
        <ele>50</ele>
        <time>2019-02-08T23:35:58Z</time>
      </trkpt>
      <trkpt lat="45.05784" lon="0.38109">
        <ele>50</ele>
        <time>2019-02-08T23:36:58Z</time>
      </trkpt>
      <trkpt lat="45.05754" lon="0.38066">
        <ele>49</ele>
        <time>2019-02-08T23:37:58Z</time>
      </trkpt>
      <trkpt lat="45.05764" lon="0.38033">
        <ele>50</ele>
        <time>2019-02-08T23:38:58Z</time>
      </trkpt>
      <trkpt lat="45.05769" lon="0.38012">
        <ele>50</ele>
        <time>2019-02-08T23:39:58Z</time>
      </trkpt>
      <trkpt lat="45.05752" lon="0.38012">
        <ele>50</ele>
        <time>2019-02-08T23:40:58Z</time>
      </trkpt>
      <trkpt lat="45.05738" lon="0.3801">
        <ele>50</ele>
        <time>2019-02-08T23:41:58Z</time>
      </trkpt>
      <trkpt lat="45.05709" lon="0.37992">
        <ele>50</ele>
        <time>2019-02-08T23:42:58Z</time>
      </trkpt>
      <trkpt lat="45.05707" lon="0.37953">
        <ele>50</ele>
        <time>2019-02-08T23:43:58Z</time>
      </trkpt>
      <trkpt lat="45.0573" lon="0.37846">
        <ele>50</ele>
        <time>2019-02-08T23:44:58Z</time>
      </trkpt>
      <trkpt lat="45.0574" lon="0.37781">
        <ele>52</ele>
        <time>2019-02-08T23:45:58Z</time>
      </trkpt>
      <trkpt lat="45.05747" lon="0.37736">
        <ele>53</ele>
        <time>2019-02-08T23:46:58Z</time>
      </trkpt>
      <trkpt lat="45.05727" lon="0.3756">
        <ele>53</ele>
        <time>2019-02-08T23:47:58Z</time>
      </trkpt>
      <trkpt lat="45.05701" lon="0.37411">
        <ele>51</ele>
        <time>2019-02-08T23:48:58Z</time>
      </trkpt>
      <trkpt lat="45.05672" lon="0.37284">
        <ele>51</ele>
        <time>2019-02-08T23:49:58Z</time>
      </trkpt>
      <trkpt lat="45.05634" lon="0.37184">
        <ele>52</ele>
        <time>2019-02-08T23:50:58Z</time>
      </trkpt>
      <trkpt lat="45.05576" lon="0.37029">
        <ele>52</ele>
        <time>2019-02-08T23:51:58Z</time>
      </trkpt>
      <trkpt lat="45.05547" lon="0.36982">
        <ele>51</ele>
        <time>2019-02-08T23:52:58Z</time>
      </trkpt>
      <trkpt lat="45.05511" lon="0.36904">
        <ele>50</ele>
        <time>2019-02-08T23:53:58Z</time>
      </trkpt>
      <trkpt lat="45.05473" lon="0.36841">
        <ele>48</ele>
        <time>2019-02-08T23:54:58Z</time>
      </trkpt>
      <trkpt lat="45.05441" lon="0.36762">
        <ele>48</ele>
        <time>2019-02-08T23:55:58Z</time>
      </trkpt>
      <trkpt lat="45.05424" lon="0.36719">
        <ele>49</ele>
        <time>2019-02-08T23:56:58Z</time>
      </trkpt>
      <trkpt lat="45.0541" lon="0.3666">
        <ele>50</ele>
        <time>2019-02-08T23:57:58Z</time>
      </trkpt>
      <trkpt lat="45.05402" lon="0.36628">
        <ele>52</ele>
        <time>2019-02-08T23:58:58Z</time>
      </trkpt>
      <trkpt lat="45.05381" lon="0.36568">
        <ele>53</ele>
        <time>2019-02-08T23:59:58Z</time>
      </trkpt>
      <trkpt lat="45.05322" lon="0.36466">
        <ele>53</ele>
        <time>2019-02-09T00:00:58Z</time>
      </trkpt>
      <trkpt lat="45.05318" lon="0.36437">
        <ele>54</ele>
        <time>2019-02-09T00:01:58Z</time>
      </trkpt>
      <trkpt lat="45.05297" lon="0.3643">
        <ele>54</ele>
        <time>2019-02-09T00:02:58Z</time>
      </trkpt>
      <trkpt lat="45.05276" lon="0.36419">
        <ele>54</ele>
        <time>2019-02-09T00:03:58Z</time>
      </trkpt>
      <trkpt lat="45.05268" lon="0.36393">
        <ele>54</ele>
        <time>2019-02-09T00:04:58Z</time>
      </trkpt>
      <trkpt lat="45.05249" lon="0.36378">
        <ele>53</ele>
        <time>2019-02-09T00:05:58Z</time>
      </trkpt>
      <trkpt lat="45.0523" lon="0.36364">
        <ele>53</ele>
        <time>2019-02-09T00:06:58Z</time>
      </trkpt>
      <trkpt lat="45.05214" lon="0.36363">
        <ele>53</ele>
        <time>2019-02-09T00:07:58Z</time>
      </trkpt>
      <trkpt lat="45.05098" lon="0.36396">
        <ele>50</ele>
        <time>2019-02-09T00:08:58Z</time>
      </trkpt>
      <trkpt lat="45.05076" lon="0.36416">
        <ele>50</ele>
        <time>2019-02-09T00:09:58Z</time>
      </trkpt>
      <trkpt lat="45.05028" lon="0.36443">
        <ele>49</ele>
        <time>2019-02-09T00:10:58Z</time>
      </trkpt>
      <trkpt lat="45.04991" lon="0.36446">
        <ele>49</ele>
        <time>2019-02-09T00:11:58Z</time>
      </trkpt>
      <trkpt lat="45.04954" lon="0.36474">
        <ele>50</ele>
        <time>2019-02-09T00:12:58Z</time>
      </trkpt>
      <trkpt lat="45.04854" lon="0.3614">
        <ele>48</ele>
        <time>2019-02-09T00:13:58Z</time>
      </trkpt>
      <trkpt lat="45.04801" lon="0.36172">
        <ele>48</ele>
        <time>2019-02-09T00:14:58Z</time>
      </trkpt>
      <trkpt lat="45.04733" lon="0.36244">
        <ele>47</ele>
        <time>2019-02-09T00:15:58Z</time>
      </trkpt>
      <trkpt lat="45.04703" lon="0.36273">
        <ele>47</ele>
        <time>2019-02-09T00:16:58Z</time>
      </trkpt>
      <trkpt lat="45.04656" lon="0.36376">
        <ele>47</ele>
        <time>2019-02-09T00:17:58Z</time>
      </trkpt>
      <trkpt lat="45.04618" lon="0.3646">
        <ele>48</ele>
        <time>2019-02-09T00:18:58Z</time>
      </trkpt>
      <trkpt lat="45.04551" lon="0.36604">
        <ele>49</ele>
        <time>2019-02-09T00:19:58Z</time>
      </trkpt>
      <trkpt lat="45.04502" lon="0.36663">
        <ele>48</ele>
        <time>2019-02-09T00:20:58Z</time>
      </trkpt>
      <trkpt lat="45.04483" lon="0.36686">
        <ele>48</ele>
        <time>2019-02-09T00:21:58Z</time>
      </trkpt>
      <trkpt lat="45.04356" lon="0.36515">
        <ele>46</ele>
        <time>2019-02-09T00:22:58Z</time>
      </trkpt>
      <trkpt lat="45.04313" lon="0.36572">
        <ele>46</ele>
        <time>2019-02-09T00:23:58Z</time>
      </trkpt>
      <trkpt lat="45.04161" lon="0.3678">
        <ele>45</ele>
        <time>2019-02-09T00:24:58Z</time>
      </trkpt>
      <trkpt lat="45.04108" lon="0.36858">
        <ele>45</ele>
        <time>2019-02-09T00:25:58Z</time>
      </trkpt>
      <trkpt lat="45.04038" lon="0.36941">
        <ele>46</ele>
        <time>2019-02-09T00:26:58Z</time>
      </trkpt>
      <trkpt lat="45.03939" lon="0.37079">
        <ele>47</ele>
        <time>2019-02-09T00:27:58Z</time>
      </trkpt>
      <trkpt lat="45.03818" lon="0.36968">
        <ele>48</ele>
        <time>2019-02-09T00:28:58Z</time>
      </trkpt>
      <trkpt lat="45.03794" lon="0.36983">
        <ele>49</ele>
        <time>2019-02-09T00:29:58Z</time>
      </trkpt>
      <trkpt lat="45.03719" lon="0.36988">
        <ele>52</ele>
        <time>2019-02-09T00:30:58Z</time>
      </trkpt>
    </trkseg>
  </trk>
</gpx>